Time;durP1;ratioP1;P1;durP2;ratioP2;P2;SDS_P1;SDS_P2;PMS_P1;PMS_P2;Temp;Humidity;BMP_temperature;BMP_pressure;BME280_temperature;BME280_humidity;BME280_pressure;Samples;Min_cycle;Max_cycle;Signal;HPM_P1;HPM_P2
2024/01/14 00:00:10;;;;;;;;;;;;;;;;;;5083736;28;19921;-77
2024/01/14 00:02:38;;;;;;;;;;;;;;;;;;5083171;28;19923;-77
2024/01/14 00:05:04;;;;;;;;;;;;;;;;;;5087328;28;19993;-77
2024/01/14 00:07:30;;;;;;;;;;;;;;;;;;5076492;28;19951;-78
2024/01/14 00:09:57;;;;;;;;;;;;;;;;;;5074011;28;19912;-77
2024/01/14 00:12:23;;;;;;;;;;;;;;;;;;5076528;28;19991;-77
2024/01/14 00:14:49;;;;;;;;;;;;;;;;;;5078529;28;20023;-77
2024/01/14 00:17:15;;;;;;;;;;;;;;;;;;5079004;28;19919;-77
2024/01/14 00:19:41;;;;;;;;;;;;;;;;;;5087116;28;19986;-77
2024/01/14 00:22:07;;;;;;;;;;;;;;;;;;5091172;28;19951;-78
2024/01/14 00:24:32;;;;;;;;;;;;;;;;;;5078597;28;19950;-77
2024/01/14 00:26:58;;;;;;;;;;;;;;;;;;5085708;28;19942;-77
2024/01/14 00:29:24;;;;;;;;;;;;;;;;;;5085635;28;20019;-78
2024/01/14 00:31:50;;;;;;;;;;;;;;;;;;5082555;28;19963;-78
2024/01/14 00:34:16;;;;;;;;;;;;;;;;;;5080210;28;19927;-77
2024/01/14 00:36:42;;;;;;;;;;;;;;;;;;5083385;28;19923;-78
2024/01/14 00:39:07;;;;;;;;;;;;;;;;;;5076038;28;19912;-77
2024/01/14 00:41:33;;;;;;;;;;;;;;;;;;5078085;28;19911;-77
2024/01/14 00:44:00;;;;;;;;;;;;;;;;;;5090238;28;19913;-77
2024/01/14 00:46:26;;;;;;;;;;;;;;;;;;5086693;28;19913;-77
2024/01/14 00:48:52;;;;;;;;;;;;;;;;;;5084938;28;20338;-77
2024/01/14 00:51:18;;;;;;;;;;;;;;;;;;5077052;28;19920;-77
2024/01/14 00:53:43;;;;;;;;;;;;;;;;;;5081721;28;19912;-77
2024/01/14 00:56:11;;;;;;;;;;;;;;;;;;5077377;28;19916;-78
2024/01/14 00:58:37;;;;;;;;;;;;;;;;;;5089052;28;20294;-78
2024/01/14 01:01:03;;;;;;;;;;;;;;;;;;5084591;28;19920;-78
2024/01/14 01:03:29;;;;;;;;;;;;;;;;;;5089424;28;19950;-77
2024/01/14 01:05:55;;;;;;;;;;;;;;;;;;5080598;28;20370;-79
2024/01/14 01:08:21;;;;;;;;;;;;;;;;;;5076140;28;19967;-79
2024/01/14 01:10:48;;;;;;;;;;;;;;;;;;5082971;28;20374;-78
2024/01/14 01:13:14;;;;;;;;;;;;;;;;;;5082586;28;20378;-78
2024/01/14 01:15:40;;;;;;;;;;;;;;;;;;5083779;28;19920;-78
2024/01/14 01:18:06;;;;;;;;;;;;;;;;;;5078365;28;20006;-78
2024/01/14 01:20:32;;;;;;;;;;;;;;;;;;5077873;28;19916;-79
2024/01/14 01:22:58;;;;;;;;;;;;;;;;;;5077783;28;19920;-79
2024/01/14 01:25:24;;;;;;;;;;;;;;;;;;5071250;28;19962;-79
2024/01/14 01:27:49;;;;;;;;;;;;;;;;;;5084857;28;19912;-79
2024/01/14 01:30:15;;;;;;;;;;;;;;;;;;5085238;28;19921;-79
2024/01/14 01:32:41;;;;;;;;;;;;;;;;;;5087095;28;20232;-79
2024/01/14 01:35:07;;;;;;;;;;;;;;;;;;5083989;28;20285;-78
2024/01/14 01:37:33;;;;;;;;;;;;;;;;;;5081208;28;19916;-78
2024/01/14 01:39:59;;;;;;;;;;;;;;;;;;5086260;28;19908;-79
2024/01/14 01:42:24;;;;;;;;;;;;;;;;;;5086564;28;19916;-79
2024/01/14 01:44:50;;;;;;;;;;;;;;;;;;5089132;28;19912;-80
2024/01/14 01:47:16;;;;;;;;;;;;;;;;;;5079053;28;19954;-78
2024/01/14 01:49:42;;;;;;;;;;;;;;;;;;5073520;28;20015;-79
2024/01/14 01:52:08;;;;;;;;;;;;;;;;;;5076740;28;19908;-79
2024/01/14 01:54:34;;;;;;;;;;;;;;;;;;5084816;28;19921;-78
2024/01/14 01:57:00;;;;;;;;;;;;;;;;;;5075130;28;19912;-79
2024/01/14 01:59:25;;;;;;;;;;;;;;;;;;5074820;28;19913;-78
2024/01/14 02:01:51;;;;;;;;;;;;;;;;;;5077376;28;20016;-79
2024/01/14 02:04:17;;;;;;;;;;;;;;;;;;5086612;28;19917;-80
2024/01/14 02:06:43;;;;;;;;;;;;;;;;;;5083035;28;19912;-79
2024/01/14 02:09:09;;;;;;;;;;;;;;;;;;5088764;28;19916;-79
2024/01/14 02:11:35;;;;;;;;;;;;;;;;;;5074255;28;20007;-78
2024/01/14 02:14:01;;;;;;;;;;;;;;;;;;5088331;28;19997;-79
2024/01/14 02:16:27;;;;;;;;;;;;;;;;;;5086834;28;19916;-79
2024/01/14 02:18:53;;;;;;;;;;;;;;;;;;5087363;28;19926;-79
2024/01/14 02:21:18;;;;;;;;;;;;;;;;;;5082230;28;20420;-79
2024/01/14 02:23:44;;;;;;;;;;;;;;;;;;5070864;28;20267;-79
2024/01/14 02:26:10;;;;;;;;;;;;;;;;;;5078542;28;19971;-79
2024/01/14 02:28:36;;;;;;;;;;;;;;;;;;5078862;28;19916;-79
2024/01/14 02:31:02;;;;;;;;;;;;;;;;;;5077345;28;19927;-79
2024/01/14 02:33:28;;;;;;;;;;;;;;;;;;5080211;28;19916;-78
2024/01/14 02:35:53;;;;;;;;;;;;;;;;;;5077430;28;19977;-79
2024/01/14 02:38:19;;;;;;;;;;;;;;;;;;5077863;28;19916;-78
2024/01/14 02:40:45;;;;;;;;;;;;;;;;;;5084646;28;19955;-79
2024/01/14 02:43:11;;;;;;;;;;;;;;;;;;5077813;28;19912;-80
2024/01/14 02:45:37;;;;;;;;;;;;;;;;;;5071026;28;19931;-79
2024/01/14 02:48:03;;;;;;;;;;;;;;;;;;5078135;28;19916;-79
2024/01/14 02:50:28;;;;;;;;;;;;;;;;;;5085306;28;19924;-79
2024/01/14 02:52:54;;;;;;;;;;;;;;;;;;5078670;28;19935;-79
2024/01/14 02:55:20;;;;;;;;;;;;;;;;;;5086443;28;19912;-79
2024/01/14 02:57:47;;;;;;;;;;;;;;;;;;5085493;28;19912;-79
2024/01/14 03:00:13;;;;;;;;;;;;;;;;;;5086042;28;20011;-79
2024/01/14 03:02:39;;;;;;;;;;;;;;;;;;5079241;28;20058;-79
2024/01/14 03:05:05;;;;;;;;;;;;;;;;;;5078238;28;19957;-79
2024/01/14 03:07:31;;;;;;;;;;;;;;;;;;5086444;28;20417;-79
2024/01/14 03:09:57;;;;;;;;;;;;;;;;;;5073899;28;19916;-79
2024/01/14 03:12:22;;;;;;;;;;;;;;;;;;5085535;28;20007;-79
2024/01/14 03:14:48;;;;;;;;;;;;;;;;;;5084341;28;19965;-79
2024/01/14 03:17:14;;;;;;;;;;;;;;;;;;5079305;28;19917;-79
2024/01/14 03:19:40;;;;;;;;;;;;;;;;;;5085386;28;19919;-79
2024/01/14 03:22:06;;;;;;;;;;;;;;;;;;5087223;28;19966;-78
2024/01/14 03:24:32;;;;;;;;;;;;;;;;;;5086314;28;19960;-79
2024/01/14 03:26:57;;;;;;;;;;;;;;;;;;5074608;28;19912;-79
2024/01/14 03:29:23;;;;;;;;;;;;;;;;;;5076873;28;19947;-79
2024/01/14 03:31:49;;;;;;;;;;;;;;;;;;5075557;28;19917;-79
2024/01/14 03:34:15;;;;;;;;;;;;;;;;;;5079230;28;19920;-79
2024/01/14 03:36:41;;;;;;;;;;;;;;;;;;5081320;28;19916;-79
2024/01/14 03:39:07;;;;;;;;;;;;;;;;;;5087110;28;19931;-79
2024/01/14 03:41:33;;;;;;;;;;;;;;;;;;5086379;28;19961;-79
2024/01/14 03:43:58;;;;;;;;;;;;;;;;;;5083869;28;19919;-80
2024/01/14 03:46:24;;;;;;;;;;;;;;;;;;5091879;28;19920;-79
2024/01/14 03:48:50;;;;;;;;;;;;;;;;;;5089218;28;20011;-79
2024/01/14 03:51:16;;;;;;;;;;;;;;;;;;5081532;28;19927;-79
2024/01/14 03:53:42;;;;;;;;;;;;;;;;;;5078821;28;19921;-78
2024/01/14 03:56:08;;;;;;;;;;;;;;;;;;5086502;28;19912;-80
2024/01/14 03:58:33;;;;;;;;;;;;;;;;;;5090097;28;19951;-79
2024/01/14 04:00:59;;;;;;;;;;;;;;;;;;5085849;28;19912;-79
2024/01/14 04:03:25;;;;;;;;;;;;;;;;;;5076167;28;20393;-79
2024/01/14 04:05:51;;;;;;;;;;;;;;;;;;5084823;28;20440;-79
2024/01/14 04:08:17;;;;;;;;;;;;;;;;;;5080239;28;19916;-80
2024/01/14 04:10:43;;;;;;;;;;;;;;;;;;5073743;28;19966;-79
2024/01/14 04:13:08;;;;;;;;;;;;;;;;;;5082088;28;20353;-79
2024/01/14 04:15:34;;;;;;;;;;;;;;;;;;5086346;28;20336;-79
2024/01/14 04:18:00;;;;;;;;;;;;;;;;;;5083370;28;20271;-80
2024/01/14 04:20:26;;;;;;;;;;;;;;;;;;5081959;28;19935;-79
2024/01/14 04:22:52;;;;;;;;;;;;;;;;;;5088478;28;19969;-79
2024/01/14 04:25:18;;;;;;;;;;;;;;;;;;5093181;28;19924;-79
2024/01/14 04:27:44;;;;;;;;;;;;;;;;;;5084494;28;20007;-79
2024/01/14 04:30:10;;;;;;;;;;;;;;;;;;5077081;28;20043;-79
2024/01/14 04:32:36;;;;;;;;;;;;;;;;;;5078898;28;20393;-79
2024/01/14 04:35:02;;;;;;;;;;;;;;;;;;5087966;28;20006;-79
2024/01/14 04:37:27;;;;;;;;;;;;;;;;;;5083924;28;19908;-79
2024/01/14 04:39:55;;;;;;;;;;;;;;;;;;5078790;28;19920;-79
2024/01/14 04:42:21;;;;;;;;;;;;;;;;;;5085915;28;19951;-79
2024/01/14 04:44:46;;;;;;;;;;;;;;;;;;5089276;28;20398;-79
2024/01/14 04:47:12;;;;;;;;;;;;;;;;;;5088055;28;20307;-79
2024/01/14 04:49:38;;;;;;;;;;;;;;;;;;5089686;28;19908;-80
2024/01/14 04:52:04;;;;;;;;;;;;;;;;;;5089903;28;19948;-79
2024/01/14 04:54:30;;;;;;;;;;;;;;;;;;5079579;28;19940;-79
2024/01/14 04:56:57;;;;;;;;;;;;;;;;;;5085103;28;19969;-80
2024/01/14 04:59:23;;;;;;;;;;;;;;;;;;5082401;28;20317;-79
2024/01/14 05:01:49;;;;;;;;;;;;;;;;;;5089302;28;20412;-80
2024/01/14 05:04:15;;;;;;;;;;;;;;;;;;5087574;28;19912;-79
2024/01/14 05:06:41;;;;;;;;;;;;;;;;;;5086700;28;21537;-79
2024/01/14 05:09:07;;;;;;;;;;;;;;;;;;5089532;28;19912;-79
2024/01/14 05:11:33;;;;;;;;;;;;;;;;;;5078262;28;19923;-80
2024/01/14 05:13:58;;;;;;;;;;;;;;;;;;5088050;28;19917;-79
2024/01/14 05:16:24;;;;;;;;;;;;;;;;;;5086111;28;19923;-80
2024/01/14 05:18:50;;;;;;;;;;;;;;;;;;5081601;28;19916;-80
2024/01/14 05:21:16;;;;;;;;;;;;;;;;;;5090113;28;19930;-80
2024/01/14 05:23:42;;;;;;;;;;;;;;;;;;5083471;28;19927;-80
2024/01/14 05:26:08;;;;;;;;;;;;;;;;;;5089178;28;19912;-79
2024/01/14 05:28:34;;;;;;;;;;;;;;;;;;5087942;28;19920;-80
2024/01/14 05:31:00;;;;;;;;;;;;;;;;;;5086108;28;20382;-79
2024/01/14 05:33:26;;;;;;;;;;;;;;;;;;5087615;28;20585;-80
2024/01/14 05:35:52;;;;;;;;;;;;;;;;;;5080562;28;19939;-80
2024/01/14 05:38:17;;;;;;;;;;;;;;;;;;5081394;28;20367;-79
2024/01/14 05:40:43;;;;;;;;;;;;;;;;;;5076941;28;20393;-79
2024/01/14 05:43:09;;;;;;;;;;;;;;;;;;5088959;28;20002;-79
2024/01/14 05:45:35;;;;;;;;;;;;;;;;;;5087877;28;19913;-80
2024/01/14 05:48:01;;;;;;;;;;;;;;;;;;5087706;28;19916;-80
2024/01/14 05:50:27;;;;;;;;;;;;;;;;;;5082073;28;20053;-80
2024/01/14 05:52:52;;;;;;;;;;;;;;;;;;5084298;28;20151;-79
2024/01/14 05:55:18;;;;;;;;;;;;;;;;;;5086651;28;19912;-79
2024/01/14 05:57:44;;;;;;;;;;;;;;;;;;5088885;28;19923;-80
2024/01/14 06:00:10;;;;;;;;;;;;;;;;;;5079084;28;20310;-80
2024/01/14 06:02:36;;;;;;;;;;;;;;;;;;5088772;28;19938;-79
2024/01/14 06:05:02;;;;;;;;;;;;;;;;;;5078984;28;19916;-79
2024/01/14 06:07:28;;;;;;;;;;;;;;;;;;5088213;28;19923;-79
2024/01/14 06:09:53;;;;;;;;;;;;;;;;;;5083173;28;19995;-79
2024/01/14 06:12:19;;;;;;;;;;;;;;;;;;5087959;28;19962;-80
2024/01/14 06:14:45;;;;;;;;;;;;;;;;;;5085624;28;19909;-79
2024/01/14 06:17:11;;;;;;;;;;;;;;;;;;5083573;28;19993;-79
2024/01/14 06:19:37;;;;;;;;;;;;;;;;;;5080881;28;19915;-79
2024/01/14 06:22:03;;;;;;;;;;;;;;;;;;5080784;28;20444;-79
2024/01/14 06:24:29;;;;;;;;;;;;;;;;;;5080736;28;20031;-79
2024/01/14 06:26:56;;;;;;;;;;;;;;;;;;5082137;28;20018;-78
2024/01/14 06:29:22;;;;;;;;;;;;;;;;;;5082456;28;19935;-80
2024/01/14 06:31:48;;;;;;;;;;;;;;;;;;5070990;28;19921;-79
2024/01/14 06:34:14;;;;;;;;;;;;;;;;;;5085779;28;19916;-79
2024/01/14 06:36:40;;;;;;;;;;;;;;;;;;5087298;28;19920;-79
2024/01/14 06:39:06;;;;;;;;;;;;;;;;;;5088857;28;19912;-79
2024/01/14 06:41:32;;;;;;;;;;;;;;;;;;5084640;28;19916;-79
2024/01/14 06:43:58;;;;;;;;;;;;;;;;;;5079788;28;19912;-79
2024/01/14 06:46:23;;;;;;;;;;;;;;;;;;5083322;28;19962;-79
2024/01/14 06:48:49;;;;;;;;;;;;;;;;;;5086200;28;20390;-79
2024/01/14 06:51:15;;;;;;;;;;;;;;;;;;5087718;28;19923;-79
2024/01/14 06:53:41;;;;;;;;;;;;;;;;;;5088280;28;19969;-79
2024/01/14 06:56:07;;;;;;;;;;;;;;;;;;5080528;28;19916;-80
2024/01/14 06:58:33;;;;;;;;;;;;;;;;;;5073605;28;19957;-79
2024/01/14 07:00:58;;;;;;;;;;;;;;;;;;5075284;28;19915;-80
2024/01/14 07:03:24;;;;;;;;;;;;;;;;;;5084043;28;20393;-80
2024/01/14 07:05:50;;;;;;;;;;;;;;;;;;5087851;28;19939;-80
2024/01/14 07:08:16;;;;;;;;;;;;;;;;;;5090254;28;19927;-78
2024/01/14 07:10:42;;;;;;;;;;;;;;;;;;5090090;28;20386;-78
2024/01/14 07:13:08;;;;;;;;;;;;;;;;;;5087936;28;19980;-79
2024/01/14 07:15:34;;;;;;;;;;;;;;;;;;5089098;28;19920;-79
2024/01/14 07:18:02;;;;;;;;;;;;;;;;;;5089548;28;19920;-80
2024/01/14 07:20:28;;;;;;;;;;;;;;;;;;5092334;28;19920;-79
2024/01/14 07:22:53;;;;;;;;;;;;;;;;;;5076828;28;19908;-78
2024/01/14 07:25:19;;;;;;;;;;;;;;;;;;5079457;28;20008;-79
2024/01/14 07:27:45;;;;;;;;;;;;;;;;;;5085811;28;19924;-80
2024/01/14 07:30:11;;;;;;;;;;;;;;;;;;5087105;28;19912;-80
2024/01/14 07:32:37;;;;;;;;;;;;;;;;;;5083036;28;19936;-79
2024/01/14 07:37:38;;;;;;;;;;;;;;;;;;5112702;27;19920;-79
2024/01/14 07:40:05;;;;;;;;;;;;;;;;;;5105808;28;19924;-79
2024/01/14 07:42:31;;;;;;;;;;;;;;;;;;5104962;28;19989;-80
2024/01/14 07:44:57;;;;;;;;;;;;;;;;;;5106925;28;19965;-79
2024/01/14 07:47:23;;;;;;;;;;;;;;;;;;5105772;28;19916;-80
2024/01/14 07:49:49;;;;;;;;;;;;;;;;;;5105960;28;19916;-79
2024/01/14 07:52:16;;;;;;;;;;;;;;;;;;5106300;28;19912;-86
2024/01/14 07:54:42;;;;;;;;;;;;;;;;;;5098386;28;19912;-83
2024/01/14 07:57:07;;;;;;;;;;;;;;;;;;5105251;28;19934;-79
2024/01/14 07:59:33;;;;;;;;;;;;;;;;;;5105314;28;20029;-80
2024/01/14 08:01:59;;;;;;;;;;;;;;;;;;5104262;28;19942;-84
2024/01/14 08:04:25;;;;;;;;;;;;;;;;;;5105298;28;19960;-82
2024/01/14 08:06:51;;;;;;;;;;;;;;;;;;5105958;28;19998;-83
2024/01/14 08:09:17;;;;;;;;;;;;;;;;;;5105712;28;19912;-86
2024/01/14 08:11:43;;;;;;;;;;;;;;;;;;5106101;28;19916;-83
2024/01/14 08:14:08;;;;;;;;;;;;;;;;;;5098539;28;19924;-80
2024/01/14 08:16:34;;;;;;;;;;;;;;;;;;5101147;28;19916;-81
2024/01/14 08:19:00;;;;;;;;;;;;;;;;;;5106233;28;19908;-81
2024/01/14 08:21:26;;;;;;;;;;;;;;;;;;5105442;28;19998;-80
2024/01/14 08:23:52;;;;;;;;;;;;;;;;;;5104722;28;19916;-80
2024/01/14 08:26:17;;;;;;;;;;;;;;;;;;5105587;28;19920;-82
2024/01/14 08:28:43;;;;;;;;;;;;;;;;;;5104871;28;20029;-81
2024/01/14 08:31:09;;;;;;;;;;;;;;;;;;5104997;28;19957;-82
2024/01/14 08:33:35;;;;;;;;;;;;;;;;;;5104948;28;19922;-82
2024/01/14 08:36:01;;;;;;;;;;;;;;;;;;5105432;28;19985;-81
2024/01/14 08:38:27;;;;;;;;;;;;;;;;;;5105589;28;20382;-84
2024/01/14 08:40:53;;;;;;;;;;;;;;;;;;5098781;28;20358;-82
2024/01/14 08:43:19;;;;;;;;;;;;;;;;;;5089451;28;19912;-82
2024/01/14 08:45:44;;;;;;;;;;;;;;;;;;5086876;28;19947;-82
2024/01/14 08:48:10;;;;;;;;;;;;;;;;;;5091816;28;19920;-81
2024/01/14 08:50:36;;;;;;;;;;;;;;;;;;5075160;28;19947;-81
2024/01/14 08:53:02;;;;;;;;;;;;;;;;;;5077187;28;19919;-82
2024/01/14 08:55:28;;;;;;;;;;;;;;;;;;5082571;28;19924;-82
2024/01/14 08:57:54;;;;;;;;;;;;;;;;;;5074003;28;19974;-83
2024/01/14 09:00:20;;;;;;;;;;;;;;;;;;5077309;28;20375;-81
2024/01/14 09:02:46;;;;;;;;;;;;;;;;;;5082457;28;20382;-83
2024/01/14 09:05:12;;;;;;;;;;;;;;;;;;5079507;28;20538;-84
2024/01/14 09:07:38;;;;;;;;;;;;;;;;;;5072076;28;19916;-85
2024/01/14 09:10:04;;;;;;;;;;;;;;;;;;5079567;28;20282;-78
2024/01/14 09:12:30;;;;;;;;;;;;;;;;;;5086746;28;20297;-79
2024/01/14 09:14:56;;;;;;;;;;;;;;;;;;5075219;28;19916;-78
2024/01/14 09:17:22;;;;;;;;;;;;;;;;;;5072645;28;19920;-78
2024/01/14 09:19:48;;;;;;;;;;;;;;;;;;5075573;28;19912;-81
2024/01/14 09:22:14;;;;;;;;;;;;;;;;;;5083190;28;19921;-82
2024/01/14 09:24:45;;;;;;;;;;;;;;;;;;5074358;28;20000;-76
2024/01/14 09:27:11;;;;;;;;;;;;;;;;;;5070737;28;20385;-77
2024/01/14 09:29:37;;;;;;;;;;;;;;;;;;5078604;28;20003;-77
2024/01/14 09:32:03;;;;;;;;;;;;;;;;;;5067803;28;19924;-77
2024/01/14 09:34:29;;;;;;;;;;;;;;;;;;5080488;28;19986;-78
2024/01/14 09:36:54;;;;;;;;;;;;;;;;;;5079721;28;19920;-78
2024/01/14 09:39:21;;;;;;;;;;;;;;;;;;5083282;28;19919;-82
2024/01/14 09:41:47;;;;;;;;;;;;;;;;;;5071007;28;20336;-83
2024/01/14 09:44:12;;;;;;;;;;;;;;;;;;5084965;28;19912;-84
2024/01/14 09:46:38;;;;;;;;;;;;;;;;;;5086227;28;20141;-82
2024/01/14 09:49:04;;;;;;;;;;;;;;;;;;5086366;28;19920;-84
2024/01/14 09:51:30;;;;;;;;;;;;;;;;;;5085886;28;20492;-83
2024/01/14 09:53:56;;;;;;;;;;;;;;;;;;5083401;28;19955;-83
2024/01/14 09:56:22;;;;;;;;;;;;;;;;;;5087481;28;19923;-85
2024/01/14 09:58:47;;;;;;;;;;;;;;;;;;5085482;28;19966;-83
2024/01/14 10:01:13;;;;;;;;;;;;;;;;;;5072615;28;19966;-83
2024/01/14 10:03:39;;;;;;;;;;;;;;;;;;5084244;28;20007;-83
2024/01/14 10:06:05;;;;;;;;;;;;;;;;;;5083073;28;19912;-83
2024/01/14 10:08:31;;;;;;;;;;;;;;;;;;5076923;28;19913;-83
2024/01/14 10:10:58;;;;;;;;;;;;;;;;;;5082305;28;20006;-86
2024/01/14 10:13:24;;;;;;;;;;;;;;;;;;5084082;28;19995;-84
2024/01/14 10:15:50;;;;;;;;;;;;;;;;;;5077555;28;20081;-78
2024/01/14 10:18:16;;;;;;;;;;;;;;;;;;5085111;28;19912;-81
2024/01/14 10:20:41;;;;;;;;;;;;;;;;;;5083920;28;20302;-83
2024/01/14 10:23:07;;;;;;;;;;;;;;;;;;5085824;28;19926;-84
2024/01/14 10:25:33;;;;;;;;;;;;;;;;;;5061458;28;19964;-84
2024/01/14 10:27:59;;;;;;;;;;;;;;;;;;5070704;28;19919;-83
2024/01/14 10:30:25;;;;;;;;;;;;;;;;;;5069977;28;20212;-83
2024/01/14 10:32:51;;;;;;;;;;;;;;;;;;5078357;28;19920;-85
2024/01/14 10:35:17;;;;;;;;;;;;;;;;;;5069192;28;19916;-85
2024/01/14 10:37:43;;;;;;;;;;;;;;;;;;5073163;28;19912;-84
2024/01/14 10:40:09;;;;;;;;;;;;;;;;;;5076656;28;19920;-84
2024/01/14 10:42:35;;;;;;;;;;;;;;;;;;5087129;28;19908;-84
2024/01/14 10:45:00;;;;;;;;;;;;;;;;;;5071450;28;19936;-85
2024/01/14 10:47:26;;;;;;;;;;;;;;;;;;5085948;28;19923;-81
2024/01/14 10:49:52;;;;;;;;;;;;;;;;;;5073643;28;19912;-82
2024/01/14 10:52:18;;;;;;;;;;;;;;;;;;5079598;28;19916;-83
2024/01/14 10:54:44;;;;;;;;;;;;;;;;;;5073323;28;20003;-83
2024/01/14 10:57:10;;;;;;;;;;;;;;;;;;5077292;28;20401;-83
2024/01/14 10:59:36;;;;;;;;;;;;;;;;;;5087826;28;20275;-85
2024/01/14 11:02:01;;;;;;;;;;;;;;;;;;5084767;28;20275;-82
2024/01/14 11:04:27;;;;;;;;;;;;;;;;;;5083299;28;19932;-83
2024/01/14 11:06:55;;;;;;;;;;;;;;;;;;5078429;28;20006;-80
2024/01/14 11:09:21;;;;;;;;;;;;;;;;;;5084725;28;20009;-84
2024/01/14 11:11:47;;;;;;;;;;;;;;;;;;5086107;28;19924;-77
2024/01/14 11:14:13;;;;;;;;;;;;;;;;;;5084555;28;20396;-80
2024/01/14 11:16:38;;;;;;;;;;;;;;;;;;5086024;28;19923;-85
2024/01/14 11:19:04;;;;;;;;;;;;;;;;;;5086322;28;20465;-88
2024/01/14 11:21:30;;;;;;;;;;;;;;;;;;5085910;28;19970;-87
2024/01/14 11:23:57;;;;;;;;;;;;;;;;;;5068343;28;19912;-86
2024/01/14 11:26:23;;;;;;;;;;;;;;;;;;5086113;28;19948;-92
2024/01/14 11:28:49;;;;;;;;;;;;;;;;;;5087835;28;19969;-88
2024/01/14 11:31:15;;;;;;;;;;;;;;;;;;5085036;28;19924;-79
2024/01/14 11:33:42;;;;;;;;;;;;;;;;;;5085612;28;19999;-83
2024/01/14 11:36:08;;;;;;;;;;;;;;;;;;5086305;28;20321;-89
2024/01/14 11:38:34;;;;;;;;;;;;;;;;;;5069394;28;19965;-88
2024/01/14 11:41:01;;;;;;;;;;;;;;;;;;5086345;28;20365;-86
2024/01/14 11:43:27;;;;;;;;;;;;;;;;;;5084779;28;20048;-90
2024/01/14 11:45:52;;;;;;;;;;;;;;;;;;5084204;28;19909;-84
2024/01/14 11:48:18;;;;;;;;;;;;;;;;;;5080416;28;20583;-83
2024/01/14 11:50:47;;;;;;;;;;;;;;;;;;5078724;28;19912;-82
2024/01/14 11:53:12;;;;;;;;;;;;;;;;;;5070412;28;19919;-82
2024/01/14 11:55:38;;;;;;;;;;;;;;;;;;5069470;28;19920;-82
2024/01/14 11:58:04;;;;;;;;;;;;;;;;;;5090454;28;19960;-80
2024/01/14 12:00:32;;;;;;;;;;;;;;;;;;5076508;28;19916;-83
2024/01/14 12:02:58;;;;;;;;;;;;;;;;;;5075602;28;19912;-82
2024/01/14 12:05:24;;;;;;;;;;;;;;;;;;5076566;28;19943;-83
2024/01/14 12:07:50;;;;;;;;;;;;;;;;;;5075100;28;20544;-84
2024/01/14 12:10:15;;;;;;;;;;;;;;;;;;5082229;28;19913;-85
2024/01/14 12:12:41;;;;;;;;;;;;;;;;;;5094241;28;19933;-85
2024/01/14 12:15:07;;;;;;;;;;;;;;;;;;5091992;28;20287;-83
2024/01/14 12:17:33;;;;;;;;;;;;;;;;;;5079059;28;19916;-82
2024/01/14 12:19:59;;;;;;;;;;;;;;;;;;5080550;28;19908;-88
2024/01/14 12:22:25;;;;;;;;;;;;;;;;;;5083740;28;20336;-85
2024/01/14 12:24:51;;;;;;;;;;;;;;;;;;5075763;28;19913;-87
2024/01/14 12:27:16;;;;;;;;;;;;;;;;;;5079196;28;19923;-81
2024/01/14 12:29:42;;;;;;;;;;;;;;;;;;5082818;28;19920;-81
2024/01/14 12:32:08;;;;;;;;;;;;;;;;;;5083877;28;19939;-81
2024/01/14 12:34:34;;;;;;;;;;;;;;;;;;5082487;28;20367;-84
2024/01/14 12:37:00;;;;;;;;;;;;;;;;;;5081524;28;20602;-86
2024/01/14 12:39:26;;;;;;;;;;;;;;;;;;5080034;28;20366;-87
2024/01/14 12:41:52;;;;;;;;;;;;;;;;;;5082393;28;19916;-83
2024/01/14 12:44:18;;;;;;;;;;;;;;;;;;5076342;28;19920;-78
2024/01/14 12:46:46;;;;;;;;;;;;;;;;;;5080249;28;19930;-84
2024/01/14 12:49:12;;;;;;;;;;;;;;;;;;5080160;28;20260;-90
2024/01/14 12:51:38;;;;;;;;;;;;;;;;;;5082788;28;19961;-88
2024/01/14 12:54:04;;;;;;;;;;;;;;;;;;5090580;28;20452;-87
2024/01/14 12:56:30;;;;;;;;;;;;;;;;;;5100828;28;19916;-83
2024/01/14 12:58:55;;;;;;;;;;;;;;;;;;5087821;28;19985;-82
2024/01/14 13:01:21;;;;;;;;;;;;;;;;;;5079282;28;19915;-80
2024/01/14 13:03:47;;;;;;;;;;;;;;;;;;5084853;28;19939;-82
2024/01/14 13:06:13;;;;;;;;;;;;;;;;;;5090541;28;20002;-86
2024/01/14 13:08:39;;;;;;;;;;;;;;;;;;5084561;28;19912;-86
2024/01/14 13:11:05;;;;;;;;;;;;;;;;;;5073431;28;20007;-85
2024/01/14 13:13:31;;;;;;;;;;;;;;;;;;5085156;28;20343;-86
2024/01/14 13:15:57;;;;;;;;;;;;;;;;;;5097025;28;19923;-85
2024/01/14 13:18:23;;;;;;;;;;;;;;;;;;5086099;28;19912;-85
2024/01/14 13:20:49;;;;;;;;;;;;;;;;;;5078112;28;19950;-86
2024/01/14 13:23:15;;;;;;;;;;;;;;;;;;5085242;28;19912;-86
2024/01/14 13:25:42;;;;;;;;;;;;;;;;;;5089512;28;19946;-85
2024/01/14 13:28:07;;;;;;;;;;;;;;;;;;5084603;28;19961;-84
2024/01/14 13:30:33;;;;;;;;;;;;;;;;;;5075392;28;20017;-89
2024/01/14 13:32:59;;;;;;;;;;;;;;;;;;5088326;28;19920;-85
2024/01/14 13:35:25;;;;;;;;;;;;;;;;;;5082756;28;19909;-86
2024/01/14 13:37:51;;;;;;;;;;;;;;;;;;5091855;28;19912;-84
2024/01/14 13:40:17;;;;;;;;;;;;;;;;;;5079884;28;19916;-86
2024/01/14 13:42:42;;;;;;;;;;;;;;;;;;5091636;28;19916;-85
2024/01/14 13:45:11;;;;;;;;;;;;;;;;;;5076148;28;19912;-86
2024/01/14 13:47:37;;;;;;;;;;;;;;;;;;5088261;28;20378;-82
2024/01/14 13:50:05;;;;;;;;;;;;;;;;;;5086445;28;19961;-81
2024/01/14 13:52:31;;;;;;;;;;;;;;;;;;5082152;28;19931;-82
2024/01/14 13:54:56;;;;;;;;;;;;;;;;;;5084275;28;19920;-82
2024/01/14 13:57:22;;;;;;;;;;;;;;;;;;5084383;28;20018;-81
2024/01/14 13:59:48;;;;;;;;;;;;;;;;;;5085175;28;20011;-82
2024/01/14 14:02:15;;;;;;;;;;;;;;;;;;5083994;28;20271;-82
2024/01/14 14:04:41;;;;;;;;;;;;;;;;;;5072715;28;20180;-84
2024/01/14 14:07:07;;;;;;;;;;;;;;;;;;5081302;28;20366;-83
2024/01/14 14:09:33;;;;;;;;;;;;;;;;;;5084426;28;19912;-82
2024/01/14 14:11:59;;;;;;;;;;;;;;;;;;5084411;28;19916;-82
2024/01/14 14:14:25;;;;;;;;;;;;;;;;;;5084331;28;19912;-81
2024/01/14 14:16:51;;;;;;;;;;;;;;;;;;5059113;28;19920;-82
2024/01/14 14:19:17;;;;;;;;;;;;;;;;;;5078454;28;20006;-81
2024/01/14 14:21:43;;;;;;;;;;;;;;;;;;5078131;28;19916;-81
2024/01/14 14:24:09;;;;;;;;;;;;;;;;;;5075710;28;20024;-81
2024/01/14 14:26:35;;;;;;;;;;;;;;;;;;5078390;28;19920;-82
2024/01/14 14:29:00;;;;;;;;;;;;;;;;;;5075059;28;19917;-81
2024/01/14 14:31:26;;;;;;;;;;;;;;;;;;5072516;28;19916;-82
2024/01/14 14:33:52;;;;;;;;;;;;;;;;;;5089452;28;20291;-81
2024/01/14 14:36:18;;;;;;;;;;;;;;;;;;5081947;28;19924;-81
2024/01/14 14:38:44;;;;;;;;;;;;;;;;;;5084282;28;19922;-82
2024/01/14 14:41:10;;;;;;;;;;;;;;;;;;5061591;28;19916;-77
2024/01/14 14:43:36;;;;;;;;;;;;;;;;;;5087767;28;20387;-79
2024/01/14 14:46:02;;;;;;;;;;;;;;;;;;5083144;28;19923;-79
2024/01/14 14:48:28;;;;;;;;;;;;;;;;;;5081308;28;20405;-80
2024/01/14 14:50:53;;;;;;;;;;;;;;;;;;5084151;28;19978;-80
2024/01/14 14:53:20;;;;;;;;;;;;;;;;;;5078385;28;19917;-80
2024/01/14 14:55:46;;;;;;;;;;;;;;;;;;5099233;28;19916;-80
2024/01/14 14:58:11;;;;;;;;;;;;;;;;;;5091843;28;19919;-80
2024/01/14 15:00:37;;;;;;;;;;;;;;;;;;5073653;28;19916;-79
2024/01/14 15:03:04;;;;;;;;;;;;;;;;;;5085144;28;19970;-80
2024/01/14 15:05:29;;;;;;;;;;;;;;;;;;5055656;28;19912;-80
2024/01/14 15:07:55;;;;;;;;;;;;;;;;;;5077771;28;19923;-80
2024/01/14 15:10:21;;;;;;;;;;;;;;;;;;5072439;28;19981;-80
2024/01/14 15:12:47;;;;;;;;;;;;;;;;;;5086573;28;19916;-80
2024/01/14 15:15:13;;;;;;;;;;;;;;;;;;5086953;28;19912;-80
2024/01/14 15:17:39;;;;;;;;;;;;;;;;;;5078774;28;19927;-80
2024/01/14 15:20:04;;;;;;;;;;;;;;;;;;5081384;28;20289;-79
2024/01/14 15:22:30;;;;;;;;;;;;;;;;;;5079481;28;19997;-79
2024/01/14 15:24:56;;;;;;;;;;;;;;;;;;5072505;28;19913;-79
2024/01/14 15:27:22;;;;;;;;;;;;;;;;;;5074837;28;19913;-80
2024/01/14 15:29:48;;;;;;;;;;;;;;;;;;5100304;28;20003;-79
2024/01/14 15:32:14;;;;;;;;;;;;;;;;;;5093514;28;20392;-79
2024/01/14 15:34:39;;;;;;;;;;;;;;;;;;5073379;28;20401;-79
2024/01/14 15:37:05;;;;;;;;;;;;;;;;;;5073515;28;19935;-80
2024/01/14 15:39:31;;;;;;;;;;;;;;;;;;5081293;28;19970;-79
2024/01/14 15:41:57;;;;;;;;;;;;;;;;;;5081425;28;19994;-79
2024/01/14 15:44:23;;;;;;;;;;;;;;;;;;5077131;28;19966;-80
2024/01/14 15:46:49;;;;;;;;;;;;;;;;;;5079238;28;19919;-81
2024/01/14 15:49:15;;;;;;;;;;;;;;;;;;5073847;28;19912;-79
2024/01/14 15:51:41;;;;;;;;;;;;;;;;;;5080411;28;20428;-80
2024/01/14 15:54:06;;;;;;;;;;;;;;;;;;5087979;28;19966;-79
2024/01/14 15:56:32;;;;;;;;;;;;;;;;;;5090523;28;19981;-78
2024/01/14 15:58:58;;;;;;;;;;;;;;;;;;5068353;28;19917;-79
2024/01/14 16:01:24;;;;;;;;;;;;;;;;;;5084013;28;19920;-76
2024/01/14 16:03:50;;;;;;;;;;;;;;;;;;5081265;28;19916;-79
2024/01/14 16:06:16;;;;;;;;;;;;;;;;;;5085924;28;20354;-78
2024/01/14 16:08:42;;;;;;;;;;;;;;;;;;5078015;28;20286;-79
2024/01/14 16:11:08;;;;;;;;;;;;;;;;;;5081744;28;20333;-79
2024/01/14 16:13:34;;;;;;;;;;;;;;;;;;5083664;28;19913;-79
2024/01/14 16:16:00;;;;;;;;;;;;;;;;;;5096917;28;20611;-80
2024/01/14 16:18:26;;;;;;;;;;;;;;;;;;5080735;28;19915;-78
2024/01/14 16:20:52;;;;;;;;;;;;;;;;;;5077417;28;19917;-75
2024/01/14 16:23:17;;;;;;;;;;;;;;;;;;5072798;28;19930;-76
2024/01/14 16:25:43;;;;;;;;;;;;;;;;;;5079617;28;20039;-80
2024/01/14 16:28:09;;;;;;;;;;;;;;;;;;5079662;28;19912;-79
2024/01/14 16:30:35;;;;;;;;;;;;;;;;;;5094439;28;19965;-80
2024/01/14 16:33:01;;;;;;;;;;;;;;;;;;5082652;28;19948;-79
2024/01/14 16:35:27;;;;;;;;;;;;;;;;;;5083251;28;20385;-79
2024/01/14 16:37:53;;;;;;;;;;;;;;;;;;5074474;28;19916;-80